Provisional Data: Long Run near Gaines, PA


Please select a monitoring station.
Please select start date.
Please select start date.

Toggle Unit: C/F Toggle Unit: C/F
Sample Time Temperature (C) Temperature (F) Specific Conductivity (mS/cm) pH   Turbidity (NTU+) DO (mg/L)
6/22/2021 12:00:00 AM 17.37 63.266 0.113 7.48 801.2 8.91
6/22/2021 12:15:00 AM 17.31 63.158 0.113 7.49 807.48 8.89
6/22/2021 12:30:00 AM 17.25 63.05 0.113 7.49 822.61 8.92
6/22/2021 12:45:00 AM 17.2 62.96 0.113 7.49 804.35 8.97
6/22/2021 1:00:00 AM 17.14 62.852 0.113 7.49 1016.01 9.02
6/22/2021 1:15:00 AM 17.09 62.762 0.113 7.5 816.62 9.03
6/22/2021 1:30:00 AM 17.04 62.672 0.113 7.51 796.8 9.07
6/22/2021 1:45:00 AM 16.97 62.546 0.113 7.51 851.18 9.01
6/22/2021 2:00:00 AM 16.91 62.438 0.113 7.51 826.08 9.08
6/22/2021 2:15:00 AM 16.85 62.33 0.113 7.52 968.67 9.11
6/22/2021 2:30:00 AM 16.79 62.222 0.113 7.52 780.14 9.13
6/22/2021 2:45:00 AM 16.72 62.096 0.113 7.51 986 9.17
6/22/2021 3:00:00 AM 16.65 61.97 0.113 7.52 918.11 9.19
6/22/2021 3:15:00 AM 16.6 61.88 0.113 7.52 768.54 9.16
6/22/2021 3:30:00 AM 16.55 61.79 0.113 7.52 1041.88 9.22
6/22/2021 3:45:00 AM 16.49 61.682 0.113 7.52 770.6 9.22
6/22/2021 4:00:00 AM 16.44 61.592 0.113 7.52 786.3 9.23
6/22/2021 4:15:00 AM 16.38 61.484 0.113 7.52 876.33 9.23
6/22/2021 4:30:00 AM 16.33 61.394 0.113 7.52 773.76 9.27
6/22/2021 4:45:00 AM 16.29 61.322 0.113 7.52 979.51 9.27
6/22/2021 5:00:00 AM 16.24 61.232 0.113 7.52 965.92 9.29
6/22/2021 5:15:00 AM 16.2 61.16 0.113 7.52 864.33 9.3
6/22/2021 5:30:00 AM 16.15 61.07 0.113 7.51 878.08 9.32
6/22/2021 5:45:00 AM 16.1 60.98 0.113 7.52 874.59 9.33
6/22/2021 6:00:00 AM 16.05 60.89 0.113 7.52 766.76 9.35
6/22/2021 6:15:00 AM 16.01 60.818 0.113 7.52 1025.64 9.37
6/22/2021 6:30:00 AM 15.97 60.746 0.113 7.53 839.93 9.4
6/22/2021 6:45:00 AM 15.94 60.692 0.113 7.53 963.85 9.43
6/22/2021 7:00:00 AM 15.9 60.62 0.113 7.54 998.83 9.46
6/22/2021 7:15:00 AM 15.86 60.548 0.113 7.54 865.1 9.49
6/22/2021 7:30:00 AM 15.84 60.512 0.113 7.55 968.34 9.56
6/22/2021 7:45:00 AM 15.81 60.458 0.113 7.56 1042.73 9.6
6/22/2021 8:00:00 AM 15.79 60.422 0.113 7.58 810.61 9.68
6/22/2021 8:15:00 AM 15.77 60.386 0.113 7.59 1088.92 9.73
6/22/2021 8:30:00 AM 15.76 60.368 0.113 7.6 743.03 9.79
6/22/2021 8:45:00 AM 15.76 60.368 0.113 7.62 1199.77 9.86
6/22/2021 9:00:00 AM 15.76 60.368 0.113 7.63 983.14 9.94
6/22/2021 9:15:00 AM 15.77 60.386 0.113 7.64 1162.07 10
6/22/2021 9:30:00 AM 15.8 60.44 0.112 7.66 976.49 10.08
6/22/2021 9:45:00 AM 15.83 60.494 0.112 7.68 1158.73 10.14
6/22/2021 10:00:00 AM 15.85 60.53 0.112 7.69 1026.47 10.2
6/22/2021 10:15:00 AM 15.9 60.62 0.112 7.71 1275.95 10.26
6/22/2021 10:30:00 AM 16.01 60.818 0.112 7.73 974.13 10.34
6/22/2021 10:45:00 AM 16.08 60.944 0.112 7.74 999.15 10.37
6/22/2021 11:00:00 AM 16.11 60.998 0.112 7.74 957.75 10.31
6/22/2021 11:15:00 AM 16.13 61.034 0.112 7.75 945.01 10.31
6/22/2021 11:30:00 AM 16.15 61.07 0.112 7.76 951.4 10.32
6/22/2021 11:45:00 AM 16.19 61.142 0.112 7.77 1222.91 10.34
6/22/2021 12:00:00 PM 16.26 61.268 0.112 7.78 1238.07 10.38
6/22/2021 12:15:00 PM 16.27 61.286 0.112 7.78 1263.7 10.36
6/22/2021 12:30:00 PM 16.28 61.304 0.112 7.78 1086.78 10.34
6/22/2021 12:45:00 PM 16.26 61.268 0.112 7.77 926.69 10.27
6/22/2021 1:00:00 PM 16.24 61.232 0.112 7.76 1022.49 10.23
6/22/2021 1:15:00 PM 16.2 61.16 0.112 7.76 1020.53 10.21
6/22/2021 1:30:00 PM 16.18 61.124 0.112 7.76 1070.55 10.24
6/22/2021 1:45:00 PM 16.19 61.142 0.112 7.77 1156.7 10.28
6/22/2021 2:00:00 PM 16.17 61.106 0.112 7.77 1010.69 10.26
6/22/2021 2:15:00 PM 16.16 61.088 0.112 7.77 1174.75 10.27
6/22/2021 2:30:00 PM 16.17 61.106 0.112 7.78 1169.71 10.31
6/22/2021 2:45:00 PM 16.17 61.106 0.112 7.79 987.38 10.35
6/22/2021 3:00:00 PM 16.18 61.124 0.112 7.79 1158.84 10.32
6/22/2021 3:15:00 PM 16.15 61.07 0.113 7.79 1246.74 10.3
6/22/2021 3:30:00 PM 16.14 61.052 0.112 7.79 1189.47 10.31
6/22/2021 3:45:00 PM 16.13 61.034 0.112 7.79 1046.65 10.33
6/22/2021 4:00:00 PM 16.16 61.088 0.112 7.8 1325.93 10.38
6/22/2021 4:15:00 PM 16.18 61.124 0.112 7.81 1116.66 10.36
6/22/2021 4:30:00 PM 16.21 61.178 0.113 7.81 1171.35 10.35
6/22/2021 4:45:00 PM 16.26 61.268 0.113 7.81 1041.13 10.35
6/22/2021 5:00:00 PM 16.32 61.376 0.113 7.8 1259.25 10.3
6/22/2021 5:15:00 PM 16.37 61.466 0.113 7.8 1404.57 10.27
6/22/2021 5:30:00 PM 16.39 61.502 0.113 7.79 972.9 10.22
6/22/2021 5:45:00 PM 16.38 61.484 0.113 7.78 1374.06 10.11
6/22/2021 6:00:00 PM 16.36 61.448 0.113 7.77 1169.76 10.08
6/22/2021 6:15:00 PM 16.35 61.43 0.113 7.77 1157.46 10.04
6/22/2021 6:30:00 PM 16.33 61.394 0.113 7.74 1338.4 9.99
6/22/2021 6:45:00 PM 16.32 61.376 0.113 7.73 1510.46 9.94
6/22/2021 7:00:00 PM 16.28 61.304 0.113 7.73 1213.71 9.94
6/22/2021 7:15:00 PM 16.21 61.178 0.114 7.71 1097.12 9.89
6/22/2021 7:30:00 PM 16.11 60.998 0.114 7.7 1157.52 9.85
6/22/2021 7:45:00 PM 16.01 60.818 0.114 7.69 1380.34 9.79
6/22/2021 8:00:00 PM 15.88 60.584 0.114 7.67 1129.6 9.75
6/22/2021 8:15:00 PM 15.77 60.386 0.114 7.66 1254.04 9.73
6/22/2021 8:30:00 PM 15.68 60.224 0.114 7.65 1118.69 9.73
6/22/2021 8:45:00 PM 15.56 60.008 0.114 7.64 1342.08 9.68
6/22/2021 9:00:00 PM 15.45 59.81 0.114 7.62 1270.46 9.66
6/22/2021 9:15:00 PM 15.34 59.612 0.115 7.61 1032.2 9.6
6/22/2021 9:30:00 PM 15.22 59.396 0.115 7.6 1140.87 9.58
6/22/2021 9:45:00 PM 15.1 59.18 0.115 7.59 1505.69 9.6
6/22/2021 10:00:00 PM 15 59 0.115 7.59 1479.86 9.61
6/22/2021 10:15:00 PM 14.87 58.766 0.115 7.58 1151.29 9.63
6/22/2021 10:30:00 PM 14.76 58.568 0.115 7.58 1190.85 9.63
6/22/2021 10:45:00 PM 14.66 58.388 0.115 7.57 1510.52 9.65
6/22/2021 11:00:00 PM 14.55 58.19 0.115 7.57 1513.08 9.65
6/22/2021 11:15:00 PM 14.45 58.01 0.115 7.56 1228.98 9.7
6/22/2021 11:30:00 PM 14.35 57.83 0.115 7.52 1247.48 9.72
6/22/2021 11:45:00 PM 14.25 57.65 0.115 7.52 1345.34 9.75
6/23/2021 12:00:00 AM 14.15 57.47 0.115 7.53 1653.55 9.77
6/23/2021 12:15:00 AM 14.05 57.29 0.115 7.53 1773.73 9.79
6/23/2021 12:30:00 AM 13.96 57.128 0.115 7.54 1884.83 9.82
6/23/2021 12:45:00 AM 13.87 56.966 0.115 7.53 1665.86 9.83
6/23/2021 1:00:00 AM 13.79 56.822 0.115 7.54 1401.08 9.84
6/23/2021 1:15:00 AM 13.7 56.66 0.115 7.54 1461.17 9.87
6/23/2021 1:30:00 AM 13.62 56.516 0.115 7.55 1460.32 9.9
6/23/2021 1:45:00 AM 13.54 56.372 0.115 7.55 1428.59 9.87
6/23/2021 2:00:00 AM 13.47 56.246 0.115 7.55 1717.35 9.89
6/23/2021 2:15:00 AM 13.4 56.12 0.115 7.55 1541.55 9.91
6/23/2021 2:30:00 AM 13.34 56.012 0.115 7.55 2036.55 9.94
6/23/2021 2:45:00 AM 13.27 55.886 0.115 7.55 1535.89 9.94
6/23/2021 3:00:00 AM 13.21 55.778 0.115 7.55 1656.59 9.92
6/23/2021 3:15:00 AM 13.15 55.67 0.115 7.55 1559.46 9.93
6/23/2021 3:30:00 AM 13.1 55.58 0.115 7.56 1638.57 9.97
6/23/2021 3:45:00 AM 13.06 55.508 0.115 7.56 1529.98 10
6/23/2021 4:00:00 AM 13.03 55.454 0.115 7.56 1558.39 10.02
6/23/2021 4:15:00 AM 13 55.4 0.115 7.56 1822.6 10.05
6/23/2021 4:30:00 AM 12.98 55.364 0.115 7.56 1687.66 10.03
6/23/2021 4:45:00 AM 12.95 55.31 0.115 7.56 1691.9 9.98
6/23/2021 5:00:00 AM 12.93 55.274 0.115 7.56 1719.94 9.97
6/23/2021 5:15:00 AM 12.9 55.22 0.115 7.56 1651.58 9.94
6/23/2021 5:30:00 AM 12.87 55.166 0.115 7.56 1667.94 9.96
6/23/2021 5:45:00 AM 12.85 55.13 0.115 7.56 1744.85 9.98
6/23/2021 6:00:00 AM 12.82 55.076 0.115 7.56 1685.76 9.96
6/23/2021 6:15:00 AM 12.79 55.022 0.115 7.56 1389.91 9.99
6/23/2021 6:30:00 AM 12.77 54.986 0.115 7.57 1800.45 9.79
6/23/2021 6:45:00 AM 12.73 54.914 0.115 7.57 1481.86 9.9
6/23/2021 7:00:00 AM 12.72 54.896 0.115 7.58 1318.59 10.05
6/23/2021 7:15:00 AM 12.71 54.878 0.115 7.59 1329.65 10.11
6/23/2021 7:30:00 AM 12.7 54.86 0.115 7.61 1345.94 10.12
6/23/2021 7:45:00 AM 12.73 54.914 0.115 7.62 1317.43 10.16
6/23/2021 8:00:00 AM 12.78 55.004 0.114 7.64 1440.06 10.23
6/23/2021 8:15:00 AM 12.8 55.04 0.114 7.64 1403.09 10.25
6/23/2021 8:30:00 AM 12.82 55.076 0.114 7.65 1385.02 10.27
6/23/2021 8:45:00 AM 12.86 55.148 0.114 7.65 1362.83 10.28
6/23/2021 9:00:00 AM 12.92 55.256 0.114 7.66 1441.46 10.29
6/23/2021 9:15:00 AM 13.05 55.49 0.114 7.66 1419.34 10.38
6/23/2021 9:30:00 AM 13.22 55.796 0.114 7.67 1541.9 10.38
6/23/2021 9:45:00 AM 13.46 56.228 0.114 7.68 1407.49 10.44
6/23/2021 10:00:00 AM 13.71 56.678 0.114 7.69 1352.36 10.44
6/23/2021 10:15:00 AM 13.94 57.092 0.114 7.7 1306.71 10.41
6/23/2021 10:30:00 AM 14.11 57.398 0.114 7.71 2051.13 10.4
6/23/2021 10:45:00 AM 14.23 57.614 0.114 7.73 1360.38 10.39
6/23/2021 11:00:00 AM 14.48 58.064 0.113 7.73 1312.95 10.36
6/23/2021 11:15:00 AM 14.81 58.658 0.113 7.74 2038.71 10.39
6/23/2021 11:30:00 AM 15.21 59.378 0.113 7.75 1753.98 10.31
6/23/2021 11:45:00 AM 15.58 60.044 0.113 7.77 1349.54 10.26
6/23/2021 12:00:00 PM 15.96 60.728 0.113 7.77 1334.72 10.28
6/23/2021 12:15:00 PM 16.18 61.124 0.113 7.77 1391.3 10.18
6/23/2021 12:30:00 PM 16.63 61.934 0.113 7.78 1325.98 10.36
6/23/2021 12:45:00 PM 17.02 62.636 0.113 7.79 1449.19 10.28
6/23/2021 1:00:00 PM 17.18 62.924 0.113 7.78 1946.48 10.2
6/23/2021 1:15:00 PM 17.27 63.086 0.113 7.78 1328.08 10.09
6/23/2021 1:30:00 PM 17.39 63.302 0.113 7.78 1467.01 10.04
6/23/2021 1:45:00 PM 17.52 63.536 0.113 7.78 1848.01 10.01
6/23/2021 2:00:00 PM 17.67 63.806 0.113 7.79 1875.85 9.97
6/23/2021 2:15:00 PM 17.72 63.896 0.113 7.79 1349.8 9.9
6/23/2021 2:30:00 PM 17.8 64.04 0.114 7.78 1727.19 9.84
6/23/2021 2:45:00 PM 17.9 64.22 0.113 7.78 1331.36 9.77
6/23/2021 3:00:00 PM 18 64.4 0.114 7.78 2032.74 9.76
6/23/2021 3:15:00 PM 18.04 64.472 0.114 7.77 1390.98 9.69
6/23/2021 3:30:00 PM 18.13 64.634 0.114 7.77 1358.85 9.7
6/23/2021 3:45:00 PM 18.21 64.778 0.114 7.76 1377.82 9.63
6/23/2021 4:00:00 PM 18.31 64.958 0.114 7.75 1329.15 9.59
6/23/2021 4:15:00 PM 18.42 65.156 0.114 7.74 1367.51 9.5
6/23/2021 4:30:00 PM 18.56 65.408 0.114 7.75 1374.79 9.52
6/23/2021 4:45:00 PM 18.65 65.57 0.114 7.74 1568.51 9.47
6/23/2021 5:00:00 PM 18.71 65.67799 0.114 7.74 1430.51 9.44
6/23/2021 5:15:00 PM 18.73 65.714 0.114 7.74 1449.51 9.43
6/23/2021 5:30:00 PM 18.68 65.624 0.114 7.73 2029.33 9.41
6/23/2021 5:45:00 PM 18.63 65.534 0.114 7.73 1550.38 9.41
6/23/2021 6:00:00 PM 18.57 65.426 0.114 7.72 1877.78 9.38
6/23/2021 6:15:00 PM 18.51 65.318 0.114 7.71 1447.55 9.34
6/23/2021 6:30:00 PM 18.4 65.12 0.114 7.71 2206.52 9.33
6/23/2021 6:45:00 PM 18.28 64.904 0.114 7.7 1707.93 9.3
6/23/2021 7:00:00 PM 18.13 64.634 0.115 7.69 1733.35 9.27
6/23/2021 7:15:00 PM 17.95 64.31 0.115 7.68 1822.18 9.28
6/23/2021 7:30:00 PM 17.79 64.022 0.115 7.66 1897 9.25
6/23/2021 7:45:00 PM 17.59 63.662 0.115 7.65 1588.77 9.22
6/23/2021 8:00:00 PM 17.42 63.356 0.115 7.64 1603.56 9.23
6/23/2021 8:15:00 PM 17.25 63.05 0.115 7.63 1546.34 9.24
6/23/2021 8:30:00 PM 17.08 62.744 0.115 7.62 1759.64 9.21
6/23/2021 8:45:00 PM 16.91 62.438 0.116 7.61 1664.32 9.19
6/23/2021 9:00:00 PM 16.76 62.168 0.116 7.6 1622.95 9.24
6/23/2021 9:15:00 PM 16.6 61.88 0.116 7.59 1893.67 9.23
6/23/2021 9:30:00 PM 16.46 61.628 0.116 7.59 1677.4 9.28
6/23/2021 9:45:00 PM 16.3 61.34 0.116 7.58 2003.66 9.3
6/23/2021 10:00:00 PM 16.17 61.106 0.116 7.58 2013.77 9.31
6/23/2021 10:15:00 PM 16.03 60.854 0.116 7.57 1977.5 9.32
6/23/2021 10:30:00 PM 15.9 60.62 0.116 7.57 1942.8 9.33
6/23/2021 10:45:00 PM 15.75 60.35 0.116 7.56 1744.7 9.35
6/23/2021 11:00:00 PM 15.63 60.134 0.116 7.56 1895.89 9.41
6/23/2021 11:15:00 PM 15.5 59.9 0.116 7.56 1984.6 9.46
6/23/2021 11:30:00 PM 15.4 59.72 0.116 7.56 2017.1 9.47
6/23/2021 11:45:00 PM 15.28 59.504 0.116 7.56 1816.37 9.51
6/24/2021 12:00:00 AM 15.17 59.306 0.116 7.55 1943.82 9.53
6/24/2021 12:15:00 AM 15.05 59.09 0.116 7.55 1878.86 9.58
6/24/2021 12:30:00 AM 14.95 58.91 0.116 7.55 2024.32 9.61
6/24/2021 12:45:00 AM 14.85 58.73 0.116 7.57 2020.06 9.63
6/24/2021 1:00:00 AM 14.74 58.532 0.116 7.55 1881.04 9.66
6/24/2021 1:15:00 AM 14.64 58.352 0.116 7.55 1873.62 9.69
6/24/2021 1:30:00 AM 14.54 58.172 0.116 7.55 1759.78 9.71
6/24/2021 1:45:00 AM 14.46 58.028 0.116 7.55 1808.25 9.73
6/24/2021 2:00:00 AM 14.36 57.848 0.116 7.55 1907.22 9.74
6/24/2021 2:15:00 AM 14.27 57.686 0.116 7.55 1873.46 9.76
6/24/2021 2:30:00 AM 14.18 57.524 0.116 7.55 1810.96 9.8
6/24/2021 2:45:00 AM 14.09 57.362 0.116 7.55 1876.64 9.8
6/24/2021 3:00:00 AM 14.01 57.218 0.116 7.55 1906.55 9.83
6/24/2021 3:15:00 AM 13.92 57.056 0.116 7.55 1873.21 9.85
6/24/2021 3:30:00 AM 13.84 56.912 0.116 7.54 1870.52 9.85
6/24/2021 3:45:00 AM 13.77 56.786 0.116 7.54 1861.37 9.85
6/24/2021 4:00:00 AM 13.69 56.642 0.116 7.54 1909.56 9.85
6/24/2021 4:15:00 AM 13.61 56.498 0.116 7.54 1915.91 9.87
6/24/2021 4:30:00 AM 13.54 56.372 0.116 7.54 1900.29 9.79
6/24/2021 4:45:00 AM 13.47 56.246 0.116 7.54 1877.37 9.81
6/24/2021 5:00:00 AM 13.4 56.12 0.116 7.54 2030.68 9.81
6/24/2021 5:15:00 AM 13.35 56.03 0.116 7.54 2000.14 9.83
6/24/2021 5:30:00 AM 13.3 55.94 0.116 7.54 2034.04 9.86
6/24/2021 5:45:00 AM 13.26 55.868 0.115 7.54 1978.26 9.78
6/24/2021 6:00:00 AM 13.22 55.796 0.116 7.54 2075.44 9.82
6/24/2021 6:15:00 AM 13.19 55.742 0.116 7.54 2227.17 9.89
6/24/2021 6:30:00 AM 13.17 55.706 0.116 7.55 2204.71 9.93
6/24/2021 6:45:00 AM 13.15 55.67 0.116 7.56 1970.44 9.94
6/24/2021 7:00:00 AM 13.13 55.634 0.116 7.56 2001.74 9.96
6/24/2021 7:15:00 AM 13.12 55.616 0.116 7.56 1985.33 9.99
6/24/2021 7:30:00 AM 13.11 55.598 0.115 7.58 2016.89 10.07
6/24/2021 7:45:00 AM 13.13 55.634 0.115 7.59 1989.16 10.08
6/24/2021 8:00:00 AM 13.15 55.67 0.115 7.6 2012.2 10.18
6/24/2021 8:15:00 AM 13.18 55.724 0.115 7.61 2116.63 10.23
6/24/2021 8:30:00 AM 13.21 55.778 0.115 7.61 1999 10.25
6/24/2021 8:45:00 AM 13.25 55.85 0.115 7.62 1975.74 10.25
6/24/2021 9:00:00 AM 13.32 55.976 0.115 7.63 1958.91 10.27
6/24/2021 9:15:00 AM 13.43 56.174 0.115 7.63 2019.89 10.29
6/24/2021 9:30:00 AM 13.58 56.444 0.115 7.64 1982.86 10.32
6/24/2021 9:45:00 AM 13.83 56.894 0.115 7.65 2019.32 10.38
6/24/2021 10:00:00 AM 14.1 57.38 0.114 7.66 2092.06 10.32
6/24/2021 10:15:00 AM 14.36 57.848 0.114 7.67 2060.69 10.35
6/24/2021 10:30:00 AM 14.65 58.37 0.114 7.68 2107.64 10.33
6/24/2021 10:45:00 AM 14.96 58.928 0.114 7.69 2009.46 10.39
6/24/2021 11:00:00 AM 15.23 59.414 0.114 7.7 1982.95 10.24
6/24/2021 11:15:00 AM 15.6 60.08 0.114 7.71 2111.7 10.23
6/24/2021 11:30:00 AM 15.96 60.728 0.114 7.72 2045.92 10.22
6/24/2021 11:45:00 AM 16.31 61.358 0.114 7.72 2078.79 10.15
6/24/2021 12:00:00 PM 16.71 62.078 0.114 7.73 2093.09 10.07
6/24/2021 12:15:00 PM 17.12 62.816 0.114 7.74 2029.96 10.01
6/24/2021 12:30:00 PM 17.48 63.464 0.114 7.75 2048.77 9.98
6/24/2021 12:45:00 PM 17.8 64.04 0.114 7.75 2117.07 9.91
6/24/2021 1:00:00 PM 18.09 64.562 0.114 7.76 2088.4 9.86
6/24/2021 1:15:00 PM 18.36 65.048 0.114 7.76 2073.18 9.77
6/24/2021 1:30:00 PM 18.53 65.354 0.114 7.75 2071.84 9.64
6/24/2021 1:45:00 PM 18.7 65.66 0.114 7.75 2038.59 9.56
6/24/2021 2:00:00 PM 18.82 65.876 0.114 7.74 2020.58 9.45
6/24/2021 2:15:00 PM 18.94 66.092 0.114 7.74 2062.19 9.4
6/24/2021 2:30:00 PM 19.06 66.308 0.114 7.73 2021.35 9.28
6/24/2021 2:45:00 PM 19.19 66.542 0.114 7.72 2054.93 9.22
6/24/2021 3:00:00 PM 19.29 66.722 0.114 7.71 2041.65 9.12
6/24/2021 3:15:00 PM 19.39 66.902 0.114 7.71 2051.79 9.03
6/24/2021 3:30:00 PM 19.53 67.154 0.114 7.71 2052.71 9.02
6/24/2021 3:45:00 PM 19.63 67.334 0.115 7.7 2102.45 8.96
6/24/2021 4:00:00 PM 19.74 67.532 0.115 7.7 2057.22 8.89
6/24/2021 4:15:00 PM 19.82 67.676 0.115 7.69 2118.45 8.82
6/24/2021 4:30:00 PM 19.84 67.712 0.115 7.69 2072.45 8.74
6/24/2021 4:45:00 PM 19.86 67.748 0.115 7.69 2078.52 8.69
6/24/2021 5:00:00 PM 19.84 67.712 0.115 7.68 2075.19 8.71
6/24/2021 5:15:00 PM 19.81 67.658 0.115 7.68 2072.7 8.64
6/24/2021 5:30:00 PM 19.75 67.55 0.115 7.67 2090.51 8.66
6/24/2021 5:45:00 PM 19.67 67.406 0.115 7.66 2121.82 8.65
6/24/2021 6:00:00 PM 19.57 67.226 0.115 7.66 2106.75 8.63
6/24/2021 6:15:00 PM 19.45 67.01 0.115 7.65 2125.1 8.63
6/24/2021 6:30:00 PM 19.31 66.758 0.116 7.65 2103.3 8.65
6/24/2021 6:45:00 PM 19.15 66.47 0.116 7.64 2104.2 8.69
6/24/2021 7:00:00 PM 18.99 66.182 0.116 7.64 2098.15 8.72
6/24/2021 7:15:00 PM 18.83 65.894 0.116 7.64 2091.9 8.72
6/24/2021 7:30:00 PM 18.66 65.588 0.116 7.64 2090.75 8.82
6/24/2021 7:45:00 PM 18.5 65.3 0.116 7.64 2109.18 8.82
6/24/2021 8:00:00 PM 18.31 64.958 0.116 7.63 2096.69 8.88
6/24/2021 8:15:00 PM 18.11 64.598 0.116 7.62 2094.41 8.88
6/24/2021 8:30:00 PM 17.94 64.292 0.116 7.61 2091.86 8.89
6/24/2021 8:45:00 PM 17.75 63.95 0.116 7.6 2104.68 8.89
6/24/2021 9:00:00 PM 17.57 63.626 0.117 7.59 2109.9 8.92
6/24/2021 9:15:00 PM 17.4 63.32 0.117 7.58 2110.64 8.98
6/24/2021 9:30:00 PM 17.24 63.032 0.117 7.57 2095.22 8.93
6/24/2021 9:45:00 PM 17.09 62.762 0.117 7.57 2111.67 9.04
6/24/2021 10:00:00 PM 16.95 62.51 0.117 7.56 2098.75 9.04
6/24/2021 10:15:00 PM 16.81 62.258 0.117 7.55 2082.63 9.02
6/24/2021 10:30:00 PM 16.69 62.042 0.117 7.55 2095.89 9.05
6/24/2021 10:45:00 PM 16.54 61.772 0.117 7.54 2070.92 9.14
6/24/2021 11:00:00 PM 16.43 61.574 0.117 7.54 2086.77 9.21
6/24/2021 11:15:00 PM 16.32 61.376 0.117 7.54 2085.01 9.2
6/24/2021 11:30:00 PM 16.19 61.142 0.117 7.54 2127.22 9.24
6/24/2021 11:45:00 PM 16.08 60.944 0.117 7.54 2122.44 9.24
6/25/2021 12:00:00 AM 15.97 60.746 0.117 7.53 2127.09 9.24
6/25/2021 12:15:00 AM 15.87 60.566 0.117 7.53 2126.51 9.2
6/25/2021 12:30:00 AM 15.76 60.368 0.117 7.53 2113.6 9.34
6/25/2021 12:45:00 AM 15.66 60.188 0.117 7.53 2135.18 9.39
6/25/2021 1:00:00 AM 15.57 60.026 0.117 7.53 2120.91 9.41
6/25/2021 1:15:00 AM 15.48 59.864 0.117 7.52 2127.68 9.4
6/25/2021 1:30:00 AM 15.39 59.702 0.117 7.53 2113.1 9.43
6/25/2021 1:45:00 AM 15.3 59.54 0.117 7.53 2120.13 9.49
6/25/2021 2:00:00 AM 15.22 59.396 0.117 7.52 2124.69 9.47
6/25/2021 2:15:00 AM 15.14 59.252 0.117 7.52 2115.76 9.48
6/25/2021 2:30:00 AM 15.06 59.108 0.117 7.52 2115 9.51
6/25/2021 2:45:00 AM 14.97 58.946 0.117 7.52 2121.87 9.58
6/25/2021 3:00:00 AM 14.89 58.802 0.117 7.52 2091.23 9.61
6/25/2021 3:15:00 AM 14.82 58.676 0.117 7.52 2130.58 9.62
6/25/2021 3:30:00 AM 14.75 58.55 0.117 7.52 2134.82 9.64
6/25/2021 3:45:00 AM 14.68 58.424 0.117 7.52 2128.42 9.69
6/25/2021 4:00:00 AM 14.61 58.298 0.117 7.52 2142.32 9.69
6/25/2021 4:15:00 AM 14.55 58.19 0.117 7.52 2150.61 9.71
6/25/2021 4:30:00 AM 14.48 58.064 0.117 7.52 2184.06 9.73
6/25/2021 4:45:00 AM 14.42 57.956 0.117 7.52 2184.6 9.73
6/25/2021 5:00:00 AM 14.36 57.848 0.117 7.52 2213.91 9.77
6/25/2021 5:15:00 AM 14.3 57.74 0.117 7.52 2241.15 9.71
6/25/2021 5:30:00 AM 14.24 57.632 0.117 7.52 2212.89 9.79
6/25/2021 5:45:00 AM 14.18 57.524 0.117 7.52 2213.09 9.82
6/25/2021 6:00:00 AM 14.12 57.416 0.117 7.52 2237.03 9.84
6/25/2021 6:15:00 AM 14.07 57.326 0.117 7.52 2241.06 9.85
6/25/2021 6:30:00 AM 14.03 57.254 0.117 7.52 2211.57 9.91
6/25/2021 6:45:00 AM 13.99 57.182 0.117 7.53 2248.08 9.99
6/25/2021 7:00:00 AM 13.96 57.128 0.117 7.53 2270.66 10.04
6/25/2021 7:15:00 AM 13.95 57.11 0.116 7.54 2271.13 10.11
6/25/2021 7:30:00 AM 13.94 57.092 0.116 7.55 2257.95 10.17
6/25/2021 7:45:00 AM 13.95 57.11 0.116 7.56 2211.72 10.21
6/25/2021 8:00:00 AM 13.97 57.146 0.116 7.57 2260.73 10.26
6/25/2021 8:15:00 AM 14.01 57.218 0.116 7.58 2267.85 10.3
6/25/2021 8:30:00 AM 14.05 57.29 0.116 7.59 2234.44 10.31
6/25/2021 8:45:00 AM 14.11 57.398 0.116 7.59 2251.68 10.35
6/25/2021 9:00:00 AM 14.19 57.542 0.116 7.6 2257.68 10.4
6/25/2021 9:15:00 AM 14.32 57.776 0.115 7.61 2262.78 10.44
6/25/2021 9:30:00 AM 14.49 58.082 0.115 7.62 2267.56 10.47
6/25/2021 9:45:00 AM 14.69 58.442 0.115 7.64 2261.16 10.49
6/25/2021 10:00:00 AM 14.92 58.856 0.115 7.65 2254.21 10.52
6/25/2021 10:15:00 AM 15.16 59.288 0.115 7.66 2274.55 10.52
6/25/2021 10:30:00 AM 15.39 59.702 0.115 7.67 2256.07 10.49
6/25/2021 10:45:00 AM 15.64 60.152 0.115 7.68 2258.39 10.49
6/25/2021 11:00:00 AM 15.91 60.638 0.115 7.69 2250.55 10.43
6/25/2021 11:15:00 AM 16.23 61.214 0.115 7.7 2251.63 10.41
6/25/2021 11:30:00 AM 16.56 61.808 0.114 7.7 2248.71 10.35
6/25/2021 11:45:00 AM 16.87 62.366 0.114 7.7 2242.67 10.32
6/25/2021 12:00:00 PM 17.24 63.032 0.114 7.71 2261.63 10.28
6/25/2021 12:15:00 PM 17.54 63.572 0.114 7.72 2317.66 10.23
6/25/2021 12:30:00 PM 17.81 64.058 0.114 7.74 2288.28 10.18
6/25/2021 12:45:00 PM 18.1 64.58 0.114 7.74 2327.05 10.09
6/25/2021 1:00:00 PM 18.35 65.03 0.114 7.75 2338.42 10.04
6/25/2021 1:15:00 PM 18.65 65.57 0.114 7.75 2333.6 9.96
6/25/2021 1:30:00 PM 18.84 65.912 0.114 7.76 2329.33 9.89
6/25/2021 1:45:00 PM 18.98 66.164 0.114 7.76 2377.08 9.9
6/25/2021 2:00:00 PM 19.12 66.416 0.114 7.75 2384.68 9.8
6/25/2021 2:15:00 PM 19.27 66.686 0.114 7.76 2379.66 9.73
6/25/2021 2:30:00 PM 19.4 66.92 0.115 7.75 2393.37 9.63
6/25/2021 2:45:00 PM 19.52 67.136 0.115 7.75 2393.61 9.52
6/25/2021 3:00:00 PM 19.62 67.316 0.115 7.73 2278.71 9.42
6/25/2021 3:15:00 PM 19.73 67.514 0.115 7.72 2369.43 9.09
6/25/2021 3:30:00 PM 19.85 67.73 0.115 7.71 2354.55 8.83
6/25/2021 3:45:00 PM 19.97 67.946 0.115 7.7 2353.99 8.74
6/25/2021 4:00:00 PM 20.11 68.198 0.115 7.69 2195.16 8.68
6/25/2021 4:15:00 PM 20.23 68.414 0.115 7.68 2336.13 8.61
6/25/2021 4:30:00 PM 20.32 68.576 0.115 7.68 2357.83 8.53
6/25/2021 4:45:00 PM 20.41 68.738 0.115 7.69 2313.4 8.55
6/25/2021 5:00:00 PM 20.44 68.792 0.115 7.7 2307.44 8.59
6/25/2021 5:15:00 PM 20.42 68.756 0.115 7.7 2077.21 8.59
6/25/2021 5:30:00 PM 20.36 68.648 0.115 7.7 2073.59 8.55
6/25/2021 5:45:00 PM 20.28 68.504 0.115 7.7 2036.87 8.59
6/25/2021 6:00:00 PM 20.18 68.324 0.115 7.7 1977.6 8.6
6/25/2021 6:15:00 PM 20.05 68.09 0.115 7.69 1944.9 8.64
6/25/2021 6:30:00 PM 19.93 67.874 0.115 7.68 1930.92 8.59
6/25/2021 6:45:00 PM 19.79 67.622 0.115 7.67 1942.95 8.59
6/25/2021 7:00:00 PM 19.63 67.334 0.115 7.67 1962.03 8.58
6/25/2021 7:15:00 PM 19.45 67.01 0.115 7.66 1971 8.56
6/25/2021 7:30:00 PM 19.29 66.722 0.116 7.65 1996.58 8.55
6/25/2021 7:45:00 PM 19.1 66.38 0.116 7.64 1751.97 8.54
6/25/2021 8:00:00 PM 18.96 66.128 0.116 7.62 1780.38 8.5
6/25/2021 8:15:00 PM 18.79 65.82201 0.116 7.61 1742.57 8.45
6/25/2021 8:30:00 PM 18.63 65.534 0.116 7.6 1796.79 8.47
6/25/2021 8:45:00 PM 18.47 65.246 0.116 7.59 1703.38 8.43
6/25/2021 9:00:00 PM 18.31 64.958 0.117 7.58 1710.07 8.4
6/25/2021 9:15:00 PM 18.14 64.652 0.117 7.57 1806.82 8.39
6/25/2021 9:30:00 PM 17.98 64.364 0.117 7.55 1315.36 8.78
6/25/2021 9:45:00 PM 17.84 64.112 0.117 7.55 1268.9 8.92
6/25/2021 10:00:00 PM 17.69 63.842 0.117 7.54 998.48 8.89
6/25/2021 10:15:00 PM 17.55 63.59 0.118 7.54 800.57 8.95
6/25/2021 10:30:00 PM 17.42 63.356 0.118 7.53 796.86 8.46
6/25/2021 10:45:00 PM 17.3 63.14 0.118 7.53 808.47 8.98
6/25/2021 11:00:00 PM 17.17 62.906 0.118 7.52 763.67 8.98
6/25/2021 11:15:00 PM 17.04 62.672 0.118 7.52 769.18 9.1
6/25/2021 11:30:00 PM 16.94 62.492 0.118 7.52 758.93 9.14
6/25/2021 11:45:00 PM 16.85 62.33 0.118 7.52 699.31 9.19
6/26/2021 12:00:00 AM 16.77 62.186 0.118 7.51 874.14 9.16
6/26/2021 12:15:00 AM 16.69 62.042 0.118 7.52 870.55 9.19
6/26/2021 12:30:00 AM 16.63 61.934 0.119 7.52 864.92 9.23
6/26/2021 12:45:00 AM 16.58 61.844 0.118 7.52 892.25 9.09
6/26/2021 1:00:00 AM 16.52 61.736 0.118 7.51 1034.51 9.2
6/26/2021 1:15:00 AM 16.47 61.646 0.118 7.51 929.27 9.13
6/26/2021 1:30:00 AM 16.42 61.556 0.118 7.51 821.41 9.26
6/26/2021 1:45:00 AM 16.37 61.466 0.118 7.51 509.73 9.29
6/26/2021 2:00:00 AM 16.33 61.394 0.118 7.51 470.38 9.32
6/26/2021 2:15:00 AM 16.3 61.34 0.118 7.51 537.03 9.32
6/26/2021 2:30:00 AM 16.28 61.304 0.119 7.51 449.72 9.3
6/26/2021 2:45:00 AM 16.25 61.25 0.119 7.51 502.01 9.29
6/26/2021 3:00:00 AM 16.23 61.214 0.118 7.51 398.98 9.22
6/26/2021 3:15:00 AM 16.21 61.178 0.118 7.51 364.5 9.27
6/26/2021 3:30:00 AM 16.18 61.124 0.118 7.51 332.89 9.37
6/26/2021 3:45:00 AM 16.15 61.07 0.118 7.51 350.44 9.22
6/26/2021 4:00:00 AM 16.12 61.016 0.118 7.51 467.95 9.25
6/26/2021 4:15:00 AM 16.09 60.962 0.118 7.51 363.39 9.3
6/26/2021 4:30:00 AM 16.05 60.89 0.118 7.51 352.64 9.29
6/26/2021 4:45:00 AM 16.02 60.836 0.118 7.51 386.4 9.28
6/26/2021 5:00:00 AM 15.99 60.782 0.118 7.51 509.36 9.32
6/26/2021 5:15:00 AM 15.97 60.746 0.118 7.5 337.97 9.35
6/26/2021 5:30:00 AM 15.95 60.71 0.118 7.51 382.96 9.42
6/26/2021 5:45:00 AM 15.94 60.692 0.118 7.52 338.54 9.42
6/26/2021 6:00:00 AM 15.91 60.638 0.118 7.52 339.93 9.41
6/26/2021 6:15:00 AM 15.89 60.602 0.118 7.52 422.87 9.47
6/26/2021 6:30:00 AM 15.87 60.566 0.118 7.52 354.39 9.49
6/26/2021 6:45:00 AM 15.88 60.584 0.118 7.53 358.94 9.54
6/26/2021 7:00:00 AM 15.88 60.584 0.117 7.54 438.27 9.58
6/26/2021 7:15:00 AM 15.89 60.602 0.118 7.54 370.69 9.61
6/26/2021 7:30:00 AM 15.9 60.62 0.118 7.55 398.77 9.66
6/26/2021 7:45:00 AM 15.93 60.674 0.117 7.56 376.66 9.74
6/26/2021 8:00:00 AM 15.96 60.728 0.117 7.57 367.39 9.79
6/26/2021 8:15:00 AM 16.02 60.836 0.117 7.59 373.08 9.87
6/26/2021 8:30:00 AM 16.08 60.944 0.117 7.6 375.43 9.95
6/26/2021 8:45:00 AM 16.15 61.07 0.117 7.61 375.9 9.88
6/26/2021 9:00:00 AM 16.24 61.232 0.117 7.62 383.74 10.02
6/26/2021 9:15:00 AM 16.43 61.574 0.116 7.65 382.7 10.12
6/26/2021 9:30:00 AM 16.54 61.772 0.116 7.66 379.04 10.14
6/26/2021 9:45:00 AM 16.79 62.222 0.116 7.67 368.08 10.16
6/26/2021 10:00:00 AM 16.93 62.474 0.116 7.69 404.77 10.16
6/26/2021 10:15:00 AM 17.03 62.654 0.116 7.69 381.78 10.15
6/26/2021 10:30:00 AM 17.12 62.816 0.116 7.7 391.32 10.18
6/26/2021 10:45:00 AM 17.24 63.032 0.116 7.71 398.11 10.15
6/26/2021 11:00:00 AM 17.34 63.212 0.115 7.71 658.4 10.14
6/26/2021 11:15:00 AM 17.63 63.734 0.115 7.72 292.81 10.17
6/26/2021 11:30:00 AM 17.85 64.13 0.115 7.73 1522.18 10.13
6/26/2021 11:45:00 AM 18.24 64.832 0.115 7.74 459.66 10.06
6/26/2021 12:00:00 PM 18.61 65.498 0.115 7.74 434.89 10.03
6/26/2021 12:15:00 PM 18.98 66.164 0.115 7.74 401.52 9.98
6/26/2021 12:30:00 PM 19.31 66.758 0.115 7.75 313.01 9.9
6/26/2021 12:45:00 PM 19.63 67.334 0.115 7.75 18.06 9.87
6/26/2021 1:00:00 PM 19.96 67.92799 0.115 7.75 32.26 9.79
6/26/2021 1:15:00 PM 20.3 68.54 0.115 7.75 33.18 9.76
6/26/2021 1:30:00 PM 20.49 68.882 0.115 7.75 10.72 9.67
6/26/2021 1:45:00 PM 20.7 69.26 0.115 7.76 29.6 9.65
6/26/2021 2:00:00 PM 20.84 69.512 0.115 7.75 40.19 9.52
6/26/2021 2:15:00 PM 21 69.8 0.116 7.75 29.22 9.5
6/26/2021 2:30:00 PM 21.11 69.998 0.116 7.75 45.02 9.46
6/26/2021 2:45:00 PM 21.23 70.214 0.116 7.75 44.05 9.4
6/26/2021 3:00:00 PM 21.33 70.394 0.115 7.74 52.32 9.32
6/26/2021 3:15:00 PM 21.42 70.556 0.116 7.73 34.12 9.23
6/26/2021 3:30:00 PM 21.52 70.736 0.116 7.73 16.08 9.18
6/26/2021 3:45:00 PM 21.61 70.898 0.116 7.72 38.53 9.12
6/26/2021 4:00:00 PM 21.69 71.042 0.116 7.72 16.92 9.14
6/26/2021 4:15:00 PM 21.76 71.168 0.116 7.72 11.65 9.09
6/26/2021 4:30:00 PM 21.83 71.294 0.116 7.71 11.33 9.1
6/26/2021 4:45:00 PM 21.88 71.384 0.115 7.71 3.21 9.04
6/26/2021 5:00:00 PM 21.9 71.42 0.116 7.7 18.21 8.99
6/26/2021 5:15:00 PM 21.88 71.384 0.116 7.7 11.09 8.98
6/26/2021 5:30:00 PM 21.82 71.276 0.117 7.68 20.17 8.9
6/26/2021 5:45:00 PM 21.72 71.096 0.117 7.67 11.87 8.86
6/26/2021 6:00:00 PM 21.61 70.898 0.117 7.66 13.54 8.83
6/26/2021 6:15:00 PM 21.48 70.664 0.117 7.64 6.81 8.77
6/26/2021 6:30:00 PM 21.37 70.466 0.117 7.64 13.05 8.75
6/26/2021 6:45:00 PM 21.23 70.214 0.117 7.62 6.74 8.75
6/26/2021 7:00:00 PM 21.09 69.962 0.117 7.62 4.51 8.75
6/26/2021 7:15:00 PM 20.95 69.71 0.117 7.61 10.49 8.76
6/26/2021 7:30:00 PM 20.8 69.44 0.117 7.61 7.12 8.75
6/26/2021 7:45:00 PM 20.64 69.152 0.117 7.6 10.18 8.73
6/26/2021 8:00:00 PM 20.49 68.882 0.118 7.59 3.2 8.73
6/26/2021 8:15:00 PM 20.32 68.576 0.117 7.58 4.34 8.71
6/26/2021 8:30:00 PM 20.13 68.234 0.118 7.56 6.43 8.69
6/26/2021 8:45:00 PM 19.97 67.946 0.119 7.56 3.19 8.7
6/26/2021 9:00:00 PM 19.8 67.64 0.118 7.55 10.1 8.69
6/26/2021 9:15:00 PM 19.65 67.37 0.119 7.54 4.42 8.67
6/26/2021 9:30:00 PM 19.45 67.01 0.118 7.52 6.27 8.68
6/26/2021 9:45:00 PM 19.3 66.74 0.119 7.52 4.31 8.67
6/26/2021 10:00:00 PM 19.16 66.488 0.118 7.52 3.67 8.69
6/26/2021 10:15:00 PM 19.03 66.254 0.119 7.51 4.16 8.71
6/26/2021 10:30:00 PM 18.89 66.002 0.119 7.5 4.35 8.74
6/26/2021 10:45:00 PM 18.77 65.786 0.119 7.51 3.1 8.76
6/26/2021 11:00:00 PM 18.65 65.57 0.119 7.5 3.44 8.78
6/26/2021 11:15:00 PM 18.54 65.372 0.119 7.49 3.41 8.79
6/26/2021 11:30:00 PM 18.43 65.174 0.119 7.5 3.09 8.81
6/26/2021 11:45:00 PM 18.34 65.012 0.119 7.5 2.68 8.83
6/27/2021 12:00:00 AM 18.24 64.832 0.119 7.49 25.35 8.84
6/27/2021 12:15:00 AM 18.15 64.67 0.119 7.49 2.71 8.78
6/27/2021 12:30:00 AM 18.06 64.508 0.119 7.49 2.44 8.85
6/27/2021 12:45:00 AM 17.97 64.346 0.119 7.48 2.3 8.86
6/27/2021 1:00:00 AM 17.88 64.184 0.119 7.48 4.19 8.87
6/27/2021 1:15:00 AM 17.8 64.04 0.12 7.48 11.17 8.92
6/27/2021 1:30:00 AM 17.72 63.896 0.119 7.48 3.05 8.94
6/27/2021 1:45:00 AM 17.65 63.77 0.12 7.48 4.07 8.86
6/27/2021 2:00:00 AM 17.57 63.626 0.119 7.48 3.81 8.95
6/27/2021 2:15:00 AM 17.51 63.518 0.119 7.48 2.36 8.98
6/27/2021 2:30:00 AM 17.44 63.392 0.119 7.48 2.52 9
6/27/2021 2:45:00 AM 17.37 63.266 0.119 7.48 2.59 9
6/27/2021 3:00:00 AM 17.31 63.158 0.119 7.48 2.45 9.04
6/27/2021 3:15:00 AM 17.26 63.068 0.119 7.48 2.49 9.03
6/27/2021 3:30:00 AM 17.2 62.96 0.119 7.48 2.4 9.06
6/27/2021 3:45:00 AM 17.15 62.87 0.119 7.48 2.52 9.05
6/27/2021 4:00:00 AM 17.1 62.78 0.119 7.48 2.47 9.06
6/27/2021 4:15:00 AM 17.06 62.708 0.119 7.48 2.58 9.07
6/27/2021 4:30:00 AM 17.01 62.618 0.119 7.48 2.83 9.02
6/27/2021 4:45:00 AM 16.97 62.546 0.119 7.48 2.55 9.07
6/27/2021 5:00:00 AM 16.92 62.456 0.119 7.48 3.12 9.14
6/27/2021 5:15:00 AM 16.88 62.384 0.119 7.48 2.72 9.16
6/27/2021 5:30:00 AM 16.83 62.294 0.118 7.48 2.24 9.13
6/27/2021 5:45:00 AM 16.79 62.222 0.119 7.48 2.52 9.17
6/27/2021 6:00:00 AM 16.75 62.15 0.119 7.48 2.18 9.15
6/27/2021 6:15:00 AM 16.71 62.078 0.119 7.49 2.24 9.17
6/27/2021 6:30:00 AM 16.68 62.024 0.118 7.49 2.17 9.19
6/27/2021 6:45:00 AM 16.65 61.97 0.118 7.51 2.17 9.25
6/27/2021 7:00:00 AM 16.64 61.952 0.119 7.51 2.16 9.37
6/27/2021 7:15:00 AM 16.64 61.952 0.119 7.52 2.21 9.42
6/27/2021 7:30:00 AM 16.65 61.97 0.118 7.53 2.12 9.51
6/27/2021 7:45:00 AM 16.66 61.988 0.118 7.54 2.06 9.53
6/27/2021 8:00:00 AM 16.69 62.042 0.117 7.55 2.07 9.58
6/27/2021 8:15:00 AM 16.72 62.096 0.118 7.55 2 9.63
6/27/2021 8:30:00 AM 16.77 62.186 0.117 7.56 2.1 9.67
6/27/2021 8:45:00 AM 16.85 62.33 0.118 7.58 2.04 9.71
6/27/2021 9:00:00 AM 16.95 62.51 0.118 7.59 2 9.74
6/27/2021 9:15:00 AM 17.07 62.726 0.117 7.6 2.06 9.76
6/27/2021 9:30:00 AM 17.23 63.014 0.117 7.61 1.94 9.84
6/27/2021 9:45:00 AM 17.5 63.5 0.117 7.63 2.07 9.85
6/27/2021 10:00:00 AM 17.77 63.986 0.116 7.65 2.01 9.9
6/27/2021 10:15:00 AM 17.87 64.166 0.116 7.66 1.96 9.9
6/27/2021 10:30:00 AM 18.13 64.634 0.116 7.67 1.94 9.92
6/27/2021 10:45:00 AM 18.37 65.066 0.116 7.68 2.2 9.58
6/27/2021 11:00:00 AM 18.61 65.498 0.116 7.69 1.95 9.53
6/27/2021 11:15:00 AM 18.89 66.002 0.116 7.69 1.96 9.75
6/27/2021 11:30:00 AM 19.21 66.578 0.116 7.7 1.93 9.78
6/27/2021 11:45:00 AM 19.54 67.172 0.116 7.71 2.13 9.75
6/27/2021 12:00:00 PM 19.89 67.802 0.116 7.71 2.03 9.7
6/27/2021 12:15:00 PM 20.28 68.504 0.115 7.71 2 9.66
6/27/2021 12:30:00 PM 20.64 69.152 0.116 7.72 1.94 9.59
6/27/2021 12:45:00 PM 20.96 69.728 0.116 7.72 2.03 9.53
6/27/2021 1:00:00 PM 21.17 70.106 0.115 7.72 2.06 9.45
6/27/2021 1:15:00 PM 21.42 70.556 0.116 7.72 2.17 9.38
6/27/2021 1:30:00 PM 21.67 71.006 0.116 7.72 2.11 9.34
6/27/2021 1:45:00 PM 21.84 71.312 0.116 7.72 1.95 9.27
6/27/2021 2:00:00 PM 21.9 71.42 0.116 7.71 2.14 9.09
6/27/2021 2:15:00 PM 22 71.6 0.116 7.71 2.16 9.12
6/27/2021 2:30:00 PM 22.05 71.69 0.117 7.7 2.21 9
6/27/2021 2:45:00 PM 22.16 71.888 0.116 7.7 2.06 9.01
6/27/2021 3:00:00 PM 22.19 71.942 0.117 7.7 2.12 8.91
6/27/2021 3:15:00 PM 22.24 72.032 0.117 7.69 2 8.87
6/27/2021 3:30:00 PM 22.29 72.122 0.117 7.68 2.01 8.84
6/27/2021 3:45:00 PM 22.25 72.05 0.116 7.67 1.98 8.78
6/27/2021 4:00:00 PM 22.23 72.014 0.117 7.67 2.14 8.66
6/27/2021 4:15:00 PM 22.21 71.978 0.117 7.66 2.04 8.71
6/27/2021 4:30:00 PM 22.19 71.942 0.117 7.66 2.12 8.67
6/27/2021 4:45:00 PM 22.13 71.834 0.117 7.65 2.13 8.66
6/27/2021 5:00:00 PM 22.08 71.744 0.116 7.65 2.09 8.46
6/27/2021 5:15:00 PM 22.02 71.636 0.116 7.64 2.26 8.51
6/27/2021 5:30:00 PM 21.97 71.546 0.117 7.63 2.17 8.61
6/27/2021 5:45:00 PM 21.9 71.42 0.117 7.62 2.18 8.64
6/27/2021 6:00:00 PM 21.84 71.312 0.116 7.61 2.22 8.65
6/27/2021 6:15:00 PM 21.77 71.186 0.117 7.6 2.26 8.62
6/27/2021 6:30:00 PM 21.68 71.024 0.118 7.6 2.17 8.62
6/27/2021 6:45:00 PM 21.58 70.844 0.118 7.59 2.14 8.61
6/27/2021 7:00:00 PM 21.49 70.682 0.118 7.59 2.13 8.63
6/27/2021 7:15:00 PM 21.37 70.466 0.118 7.58 2.08 8.61
6/27/2021 7:30:00 PM 21.25 70.25 0.118 7.57 2.14 8.6
6/27/2021 7:45:00 PM 21.11 69.998 0.118 7.57 3.3 8.57
6/27/2021 8:00:00 PM 20.94 69.692 0.119 7.56 2.18 8.58
6/27/2021 8:15:00 PM 20.76 69.368 0.119 7.55 2.16 8.59
6/27/2021 8:30:00 PM 20.57 69.026 0.118 7.55 2.56 8.48
6/27/2021 8:45:00 PM 20.41 68.738 0.119 7.54 2.52 8.56
6/27/2021 9:00:00 PM 20.2 68.36 0.119 7.53 2.56 8.57
6/27/2021 9:15:00 PM 20.03 68.054 0.119 7.52 8.85 8.57
6/27/2021 9:30:00 PM 19.85 67.73 0.119 7.51 2.69 8.56
6/27/2021 9:45:00 PM 19.68 67.424 0.12 7.51 2.44 8.59
6/27/2021 10:00:00 PM 19.54 67.172 0.12 7.5 2.51 8.59
6/27/2021 10:15:00 PM 19.4 66.92 0.119 7.5 2.27 8.62
6/27/2021 10:30:00 PM 19.25 66.65 0.12 7.49 2.36 8.64
6/27/2021 10:45:00 PM 19.13 66.434 0.119 7.49 2.2 8.56
6/27/2021 11:00:00 PM 19.03 66.254 0.12 7.49 2.85 8.65
6/27/2021 11:15:00 PM 18.89 66.002 0.12 7.49 8.23 8.67
6/27/2021 11:30:00 PM 18.79 65.82201 0.12 7.48 2.26 8.66
6/27/2021 11:45:00 PM 18.68 65.624 0.12 7.49 1.99 8.72
6/28/2021 12:00:00 AM 18.57 65.426 0.12 7.48 1.99 8.77
6/28/2021 12:15:00 AM 18.48 65.264 0.12 7.48 1776.78 8.78
6/28/2021 12:30:00 AM 18.39 65.102 0.12 7.48 2.38 8.8
6/28/2021 12:45:00 AM 18.29 64.922 0.12 7.48 2.41 8.82
6/28/2021 1:00:00 AM 18.22 64.796 0.12 7.48 2.16 8.86
6/28/2021 1:15:00 AM 18.13 64.634 0.12 7.48 2.08 8.86
6/28/2021 1:30:00 AM 18.05 64.49 0.12 7.48 1.92 8.89
6/28/2021 1:45:00 AM 17.98 64.364 0.12 7.48 2.06 8.89
6/28/2021 2:00:00 AM 17.9 64.22 0.12 7.48 2.01 8.93
6/28/2021 2:15:00 AM 17.83 64.094 0.12 7.48 2.07 8.94
6/28/2021 2:30:00 AM 17.75 63.95 0.12 7.48 4.9 8.95
6/28/2021 2:45:00 AM 17.7 63.86 0.12 7.48 2.72 8.96
6/28/2021 3:00:00 AM 17.63 63.734 0.12 7.48 4 8.98
6/28/2021 3:15:00 AM 17.56 63.608 0.12 7.48 2.12 9.02
6/28/2021 3:30:00 AM 17.49 63.482 0.12 7.48 2.07 9.03
6/28/2021 3:45:00 AM 17.43 63.374 0.12 7.48 2.18 9.05
6/28/2021 4:00:00 AM 17.36 63.248 0.12 7.48 2.09 9.06
6/28/2021 4:15:00 AM 17.31 63.158 0.12 7.48 2.07 9.08
6/28/2021 4:30:00 AM 17.24 63.032 0.12 7.48 2.12 9.08
6/28/2021 4:45:00 AM 17.19 62.942 0.12 7.48 2.18 9.1
6/28/2021 5:00:00 AM 17.13 62.834 0.12 7.48 2.23 9.11
6/28/2021 5:15:00 AM 17.08 62.744 0.119 7.48 2.42 9.12
6/28/2021 5:30:00 AM 17.02 62.636 0.119 7.48 2.24 9.14
6/28/2021 5:45:00 AM 16.97 62.546 0.119 7.48 2.13 9.15
6/28/2021 6:00:00 AM 16.93 62.474 0.12 7.48 2.22 9.15
6/28/2021 6:15:00 AM 16.87 62.366 0.119 7.48 1.99 9.21
6/28/2021 6:30:00 AM 16.83 62.294 0.119 7.48 2.06 9.24
6/28/2021 6:45:00 AM 16.79 62.222 0.119 7.49 2.05 9.27
6/28/2021 7:00:00 AM 16.75 62.15 0.119 7.49 1.97 9.33
6/28/2021 7:15:00 AM 16.72 62.096 0.119 7.5 2.24 9.37
6/28/2021 7:30:00 AM 16.71 62.078 0.119 7.5 2.02 9.4
6/28/2021 7:45:00 AM 16.7 62.06 0.119 7.51 2.46 9.45
6/28/2021 8:00:00 AM 16.72 62.096 0.119 7.52 1.92 9.51
6/28/2021 8:15:00 AM 16.75 62.15 0.119 7.52 1.99 9.52
6/28/2021 8:30:00 AM 16.79 62.222 0.119 7.53 2.05 9.56
6/28/2021 8:45:00 AM 16.85 62.33 0.119 7.54 1.89 9.65
6/28/2021 9:00:00 AM 16.99 62.582 0.119 7.55 1.84 9.71
6/28/2021 9:15:00 AM 17.13 62.834 0.118 7.56 1.82 9.74
6/28/2021 9:30:00 AM 17.33 63.194 0.118 7.58 1.88 9.78
6/28/2021 9:45:00 AM 17.54 63.572 0.118 7.59 1.92 9.8
6/28/2021 10:00:00 AM 17.78 64.004 0.118 7.6 1.89 9.82
6/28/2021 10:15:00 AM 18.02 64.436 0.118 7.62 1.84 9.84
6/28/2021 10:30:00 AM 18.32 64.976 0.118 7.63 1.86 9.86
6/28/2021 10:45:00 AM 18.55 65.39 0.118 7.64 1.93 9.86
6/28/2021 11:00:00 AM 18.69 65.642 0.118 7.66 1.94 9.82
6/28/2021 11:15:00 AM 18.81 65.858 0.118 7.66 1.85 9.81
6/28/2021 11:30:00 AM 19.18 66.524 0.117 7.67 1.94 9.79
6/28/2021 11:45:00 AM 19.56 67.208 0.117 7.68 1.91 9.77
6/28/2021 12:00:00 PM 20.09 68.162 0.117 7.69 1.97 9.72
6/28/2021 12:15:00 PM 20.54 68.972 0.117 7.7 1.98 9.7
6/28/2021 12:30:00 PM 21.01 69.818 0.117 7.7 2.05 9.61
6/28/2021 12:45:00 PM 21.3 70.34 0.117 7.71 1.96 9.44
6/28/2021 1:00:00 PM 21.63 70.934 0.117 7.71 2.37 9.44
6/28/2021 1:15:00 PM 21.9 71.42 0.117 7.71 1.87 9.4
6/28/2021 1:30:00 PM 22.17 71.906 0.117 7.71 1.87 9.3
6/28/2021 1:45:00 PM 22.36 72.248 0.117 7.7 2.48 9.22
6/28/2021 2:00:00 PM 22.48 72.464 0.117 7.69 4.08 9.07
6/28/2021 2:15:00 PM 22.54 72.57201 0.118 7.69 2.5 8.77
6/28/2021 2:30:00 PM 22.63 72.734 0.118 7.69 1.91 8.98
6/28/2021 2:45:00 PM 22.74 72.932 0.118 7.68 2.1 8.7
6/28/2021 3:00:00 PM 22.85 73.13 0.118 7.67 2.93 8.74
6/28/2021 3:15:00 PM 22.93 73.274 0.118 7.67 1.6 8.85
6/28/2021 3:30:00 PM 23.04 73.472 0.118 7.67 2.1 8.53
6/28/2021 3:45:00 PM 23.14 73.652 0.118 7.66 2.69 8.49
6/28/2021 4:00:00 PM 23.29 73.922 0.118 7.66 4.46 8.71
6/28/2021 4:15:00 PM 23.35 74.03 0.118 7.65 2.36 8.69
6/28/2021 4:30:00 PM 23.44 74.192 0.118 7.65 1.65 8.41
6/28/2021 4:45:00 PM 23.45 74.21 0.118 7.65 1.72 8.53
6/28/2021 5:00:00 PM 23.46 74.228 0.118 7.64 1.66 8.44
6/28/2021 5:15:00 PM 23.4 74.12 0.118 7.63 1.65 8.54
6/28/2021 5:30:00 PM 23.28 73.904 0.118 7.61 2.01 8.44
6/28/2021 5:45:00 PM 23.15 73.67 0.118 7.59 1.79 7.95
6/28/2021 6:00:00 PM 23.06 73.508 0.115 7.61 2.74 8.46
6/28/2021 6:15:00 PM 22.96 73.328 0.116 7.61 2.29 8.47
6/28/2021 6:30:00 PM 22.79 73.022 0.116 7.6 2.03 8.41
6/28/2021 6:45:00 PM 22.61 72.698 0.116 7.58 1.94 8.28
6/28/2021 7:00:00 PM 22.45 72.41 0.116 7.58 2.03 8.38
6/28/2021 7:15:00 PM 22.27 72.086 0.116 7.56 2.01 8.35
6/28/2021 7:30:00 PM 22.06 71.708 0.116 7.55 1.85 8.41
6/28/2021 7:45:00 PM 21.88 71.384 0.116 7.54 2.11 8.38
6/28/2021 8:00:00 PM 21.67 71.006 0.116 7.52 1.95 8.37
6/28/2021 8:15:00 PM 21.49 70.682 0.116 7.52 1.93 8.42
6/28/2021 8:30:00 PM 21.3 70.34 0.117 7.51 2.01 8.41
6/28/2021 8:45:00 PM 21.11 69.998 0.117 7.49 1.94 8.41
6/28/2021 9:00:00 PM 20.92 69.656 0.117 7.49 1.98 8.42
6/28/2021 9:15:00 PM 20.74 69.332 0.117 7.48 2.1 8.43
6/28/2021 9:30:00 PM 20.57 69.026 0.117 7.48 3.46 8.39
6/28/2021 9:45:00 PM 20.42 68.756 0.118 7.47 1.88 8.41
6/28/2021 10:00:00 PM 20.28 68.504 0.118 7.47 2.71 8.42
6/28/2021 10:15:00 PM 20.13 68.234 0.118 7.47 1.94 8.46
6/28/2021 10:30:00 PM 20 68 0.119 7.47 1.9 8.45
6/28/2021 10:45:00 PM 19.87 67.766 0.119 7.47 1.86 8.51
6/28/2021 11:00:00 PM 19.75 67.55 0.119 7.47 1.76 8.55
6/28/2021 11:15:00 PM 19.63 67.334 0.119 7.47 1.78 8.56
6/28/2021 11:30:00 PM 19.53 67.154 0.119 7.46 4.88 8.58
6/28/2021 11:45:00 PM 19.42 66.956 0.12 7.46 6.67 8.56
6/29/2021 12:00:00 AM 19.32 66.776 0.12 7.46 4.22 8.52
6/29/2021 12:15:00 AM 19.22 66.596 0.12 7.46 3.49 8.6
6/29/2021 12:30:00 AM 19.13 66.434 0.12 7.46 9.85 8.6
6/29/2021 12:45:00 AM 19.06 66.308 0.12 7.46 20.06 8.64
6/29/2021 1:00:00 AM 18.98 66.164 0.12 7.46 3.97 8.67
6/29/2021 1:15:00 AM 18.92 66.056 0.12 7.46 3.87 8.68
6/29/2021 1:30:00 AM 18.85 65.93 0.12 7.46 4.25 8.72
6/29/2021 1:45:00 AM 18.8 65.84 0.12 7.46 2.88 8.72
6/29/2021 2:00:00 AM 18.74 65.732 0.12 7.46 6.25 8.74
6/29/2021 2:15:00 AM 18.69 65.642 0.12 7.46 3.31 8.75
6/29/2021 2:30:00 AM 18.64 65.552 0.12 7.47 3.25 8.74
6/29/2021 2:45:00 AM 18.59 65.462 0.12 7.47 3.1 8.76
6/29/2021 3:00:00 AM 18.55 65.39 0.12 7.47 6.63 8.77
6/29/2021 3:15:00 AM 18.52 65.336 0.12 7.47 6.23 8.78
6/29/2021 3:30:00 AM 18.47 65.246 0.12 7.47 3.81 8.79
6/29/2021 3:45:00 AM 18.43 65.174 0.12 7.47 3.4 8.8
6/29/2021 4:00:00 AM 18.4 65.12 0.12 7.47 4.77 8.79
6/29/2021 4:15:00 AM 18.36 65.048 0.12 7.47 3.53 8.81
6/29/2021 4:30:00 AM 18.33 64.994 0.12 7.48 4.56 8.83
6/29/2021 4:45:00 AM 18.29 64.922 0.12 7.48 4.09 8.85
6/29/2021 5:00:00 AM 18.26 64.868 0.12 7.48 5.4 8.86
6/29/2021 5:15:00 AM 18.23 64.814 0.12 7.48 2.71 8.81
6/29/2021 5:30:00 AM 18.19 64.742 0.12 7.48 3.09 8.88
6/29/2021 5:45:00 AM 18.16 64.688 0.12 7.46 2.46 8.85
6/29/2021 6:00:00 AM 18.13 64.634 0.12 7.46 4.53 8.88
6/29/2021 6:15:00 AM 18.1 64.58 0.12 7.47 6.4 8.92
6/29/2021 6:30:00 AM 18.08 64.544 0.12 7.47 6.45 8.94
6/29/2021 6:45:00 AM 18.06 64.508 0.12 7.47 3.19 8.96
6/29/2021 7:00:00 AM 18.04 64.472 0.12 7.48 5.65 9
6/29/2021 7:15:00 AM 18.04 64.472 0.118 7.5 1.48 9.12
6/29/2021 7:30:00 AM 18.05 64.49 0.12 7.51 1.74 9.04
6/29/2021 7:45:00 AM 18.07 64.526 0.12 7.52 1.46 9.26
6/29/2021 8:00:00 AM 18.09 64.562 0.119 7.53 1.72 9.34
6/29/2021 8:15:00 AM 18.12 64.616 0.119 7.54 1.43 9.39
6/29/2021 8:30:00 AM 18.2 64.76 0.119 7.57 1.38 9.51
6/29/2021 8:45:00 AM 18.27 64.886 0.119 7.57 1.24 9.5
6/29/2021 9:00:00 AM 18.35 65.03 0.119 7.58 1.62 9.46
6/29/2021 9:15:00 AM 18.43 65.174 0.119 7.58 1.26 9.53
6/29/2021 9:30:00 AM 18.56 65.408 0.119 7.58 7.79 9.53
6/29/2021 9:45:00 AM 18.72 65.696 0.119 7.59 3.19 9.55
6/29/2021 10:00:00 AM 18.95 66.11 0.119 7.6 1.91 9.57
6/29/2021 10:15:00 AM 19.15 66.47 0.119 7.61 1.27 9.61
6/29/2021 10:30:00 AM 19.41 66.938 0.119 7.63 1.24 9.62
6/29/2021 10:45:00 AM 19.61 67.298 0.119 7.64 1.33 9.59
6/29/2021 11:00:00 AM 19.86 67.748 0.119 7.64 1.51 9.58
6/29/2021 11:15:00 AM 20.21 68.378 0.119 7.65 1.2 9.57
6/29/2021 11:30:00 AM 20.59 69.062 0.118 7.66 1.29 9.53
6/29/2021 11:45:00 AM 20.94 69.692 0.118 7.67 2.93 9.49
6/29/2021 12:00:00 PM 21.32 70.376 0.118 7.67 1.3 9.46
6/29/2021 12:15:00 PM 21.69 71.042 0.118 7.68 1.21 9.42
6/29/2021 12:30:00 PM 21.99 71.582 0.118 7.68 1.38 9.35
6/29/2021 12:45:00 PM 22.33 72.194 0.118 7.69 1.31 9.3
6/29/2021 1:00:00 PM 22.63 72.734 0.118 7.69 1.31 9.25
6/29/2021 1:15:00 PM 22.92 73.256 0.118 7.69 1.18 9.19
6/29/2021 1:30:00 PM 23.16 73.688 0.118 7.69 1.38 9.11
6/29/2021 1:45:00 PM 23.4 74.12 0.118 7.69 1.29 9
6/29/2021 2:00:00 PM 23.53 74.354 0.118 7.69 1.49 8.91
6/29/2021 2:15:00 PM 23.62 74.516 0.119 7.68 1.24 8.8
6/29/2021 2:30:00 PM 23.69 74.642 0.119 7.67 1.49 8.71
6/29/2021 2:45:00 PM 23.77 74.786 0.119 7.66 1.31 8.72
6/29/2021 3:00:00 PM 23.88 74.984 0.119 7.66 1.31 8.65
6/29/2021 3:15:00 PM 24.01 75.218 0.119 7.66 1.34 8.64
6/29/2021 3:30:00 PM 24.1 75.38 0.119 7.64 1.46 8.54
6/29/2021 3:45:00 PM 24.23 75.614 0.119 7.65 1.78 8.51
6/29/2021 4:00:00 PM 24.3 75.74 0.119 7.64 1.4 8.46
6/29/2021 4:15:00 PM 24.35 75.83 0.119 7.63 1.53 8.39
6/29/2021 4:30:00 PM 24.37 75.866 0.119 7.62 1.32 8.36
6/29/2021 4:45:00 PM 24.39 75.902 0.119 7.61 1.25 8.3
6/29/2021 5:00:00 PM 24.37 75.866 0.119 7.61 1.47 8.31
6/29/2021 5:15:00 PM 24.36 75.848 0.119 7.6 1.32 8.28
6/29/2021 5:30:00 PM 24.28 75.704 0.12 7.59 1.33 8.16
6/29/2021 5:45:00 PM 24.2 75.56 0.12 7.58 1.26 8.19
6/29/2021 6:00:00 PM 24.09 75.362 0.12 7.58 1.25 8.17
6/29/2021 6:15:00 PM 23.98 75.164 0.12 7.57 3.04 8.09
6/29/2021 6:30:00 PM 23.87 74.966 0.12 7.56 1.31 8.15
6/29/2021 6:45:00 PM 23.74 74.732 0.12 7.56 1.31 8.17
6/29/2021 7:00:00 PM 23.61 74.498 0.12 7.55 1.28 8.19
6/29/2021 7:15:00 PM 23.45 74.21 0.12 7.55 1.37 8.19
6/29/2021 7:30:00 PM 23.3 73.94 0.12 7.54 1.38 8.12
6/29/2021 7:45:00 PM 23.12 73.616 0.12 7.54 1.33 8.17
6/29/2021 8:00:00 PM 22.94 73.292 0.12 7.53 1.3 8.17
6/29/2021 8:15:00 PM 22.72 72.896 0.121 7.52 1.34 8.18
6/29/2021 8:30:00 PM 22.52 72.536 0.121 7.52 1.44 8.18
6/29/2021 8:45:00 PM 22.29 72.122 0.121 7.51 1.36 8.19
6/29/2021 9:00:00 PM 22.08 71.744 0.121 7.5 1.46 8.18
6/29/2021 9:15:00 PM 21.88 71.384 0.121 7.49 1.4 8.19
6/29/2021 9:30:00 PM 21.7 71.06 0.121 7.49 1.63 8.21
6/29/2021 9:45:00 PM 21.5 70.7 0.121 7.49 1.49 8.17
6/29/2021 10:00:00 PM 21.33 70.394 0.121 7.48 1.48 8.23
6/29/2021 10:15:00 PM 21.17 70.106 0.121 7.47 1.49 8.25

These are provisional data and have not been subject to a quality assurance process, but rather are the raw data reported by the instrument.
H: value is above sensor operating range
L: value is below sensor operating range
Offline: station is not reporting data
NC: parameter is not collected at site

Data Availability & Limitations

Uncertainty and potential for error can be associated with environmental monitoring data. Provisional data have not been subject to a quality assurance process, but rather are the raw data reported by the instrument. Data users are cautioned to consider carefully the provisional nature of the information before using it for decisions that concern personal or public safety or the conduct of business that involves substantial monetary or operational consequences.

Approved data are currently available by request by emailing: srbc@srbc.net. Approved data have been subject to a quality assurance process to correct for equipment or fouling drift. Data recorded during equipment malfunctions have been removed.

View Historical Stations that have been discontinued.